createdAt,value
2023-05-01T00:01:44.253Z,6.40
2023-05-01T00:04:10.922Z,4.88
2023-05-01T00:06:37.725Z,6.38
2023-05-01T00:09:04.141Z,6.18
2023-05-01T00:11:30.579Z,5.63
2023-05-01T00:13:56.987Z,6.78
2023-05-01T00:16:23.497Z,5.32
2023-05-01T00:18:49.994Z,5.63
2023-05-01T00:21:16.832Z,5.95
2023-05-01T00:23:43.274Z,5.30
2023-05-01T00:26:09.721Z,6.22
2023-05-01T00:28:36.176Z,7.32
2023-05-01T00:31:02.694Z,5.20
2023-05-01T00:33:29.153Z,6.55
2023-05-01T00:35:55.988Z,6.50
2023-05-01T00:38:26.566Z,8.18
2023-05-01T00:40:52.933Z,6.60
2023-05-01T00:43:19.299Z,5.72
2023-05-01T00:45:46.514Z,5.70
2023-05-01T00:48:13.288Z,8.18
2023-05-01T00:50:40.818Z,5.38
2023-05-01T00:53:07.255Z,5.72
2023-05-01T00:55:35.669Z,6.82
2023-05-01T00:58:02.867Z,7.63
2023-05-01T01:00:29.634Z,7.05
2023-05-01T01:02:56.664Z,7.47
2023-05-01T01:05:28.216Z,7.45
2023-05-01T01:07:58.167Z,8.65
2023-05-01T01:10:47.031Z,7.63
2023-05-01T01:13:25.613Z,8.00
2023-05-01T01:16:08.866Z,7.10
2023-05-01T01:18:54.362Z,7.55
2023-05-01T01:21:31.908Z,6.50
2023-05-01T01:24:36.050Z,6.88
2023-05-01T01:28:06.229Z,9.32
2023-05-01T01:30:49.177Z,5.53
2023-05-01T01:33:49.397Z,6.07
2023-05-01T01:37:03.323Z,8.02
2023-05-01T01:39:48.713Z,7.20
2023-05-01T01:42:32.776Z,6.07
2023-05-01T01:45:04.928Z,5.88
2023-05-01T01:47:34.321Z,6.65
2023-05-01T01:50:05.055Z,6.65
2023-05-01T01:52:33.306Z,6.65
2023-05-01T01:55:09.597Z,6.35
2023-05-01T01:57:39.402Z,7.68
2023-05-01T02:00:11.147Z,6.13
2023-05-01T02:02:39.815Z,6.45
2023-05-01T02:05:13.492Z,6.78
2023-05-01T02:07:41.992Z,7.45
2023-05-01T02:10:13.646Z,6.97
2023-05-01T02:12:41.552Z,7.43
2023-05-01T02:15:10.035Z,7.82
2023-05-01T02:17:38.083Z,6.45
2023-05-01T02:20:07.785Z,6.88
2023-05-01T02:22:34.513Z,6.63
2023-05-01T02:25:03.328Z,5.53
2023-05-01T02:27:38.174Z,6.20
2023-05-01T02:30:05.582Z,5.80
2023-05-01T02:32:32.624Z,5.80
2023-05-01T02:35:00.393Z,6.18
2023-05-01T02:37:28.060Z,5.88
2023-05-01T02:39:55.134Z,7.05
2023-05-01T02:42:24.349Z,7.32
2023-05-01T02:45:01.638Z,6.68
2023-05-01T02:49:59.024Z,8.38
2023-05-01T02:52:26.058Z,6.90
2023-05-01T02:54:52.624Z,7.35
2023-05-01T02:57:20.364Z,5.15
2023-05-01T02:59:46.823Z,6.75
2023-05-01T03:02:13.252Z,6.15
2023-05-01T03:04:39.775Z,8.07
2023-05-01T03:07:06.261Z,8.00
2023-05-01T03:09:32.596Z,6.22
2023-05-01T03:11:59.031Z,6.45
2023-05-01T03:14:28.611Z,6.85
2023-05-01T03:16:55.975Z,6.90
2023-05-01T03:19:22.446Z,6.50
2023-05-01T03:21:48.911Z,6.22
2023-05-01T03:24:15.274Z,5.95
2023-05-01T03:26:41.831Z,7.15
2023-05-01T03:29:08.620Z,6.25
2023-05-01T03:31:35.444Z,7.10
2023-05-01T03:34:01.968Z,5.35
2023-05-01T03:36:28.402Z,8.73
2023-05-01T03:38:54.764Z,5.32
2023-05-01T03:41:21.499Z,6.30
2023-05-01T03:43:47.922Z,6.22
2023-05-01T03:46:14.425Z,7.15
2023-05-01T03:48:40.838Z,5.75
2023-05-01T03:51:07.321Z,7.47
2023-05-01T03:53:33.779Z,7.57
2023-05-01T03:56:00.194Z,7.60
2023-05-01T03:58:29.629Z,7.05
2023-05-01T04:00:58.529Z,7.53
2023-05-01T04:03:24.979Z,8.45
2023-05-01T04:05:51.552Z,11.20
2023-05-01T04:08:17.918Z,8.07
2023-05-01T04:10:44.606Z,7.50
2023-05-01T04:13:12.010Z,8.07
2023-05-01T04:15:38.990Z,8.63
2023-05-01T04:18:05.578Z,8.80
2023-05-01T04:20:32.979Z,8.73
2023-05-01T04:22:59.383Z,7.82
2023-05-01T04:25:28.472Z,7.90
2023-05-01T04:27:54.960Z,7.28
2023-05-01T04:30:21.518Z,7.20
2023-05-01T04:32:48.021Z,7.50
2023-05-01T04:35:14.576Z,8.05
2023-05-01T04:37:41.032Z,8.80
2023-05-01T04:40:11.802Z,7.15
2023-05-01T04:42:42.368Z,8.75
2023-05-01T04:45:09.150Z,8.13
2023-05-01T04:47:35.659Z,8.50
2023-05-01T04:50:02.087Z,6.85
2023-05-01T04:52:28.518Z,7.40
2023-05-01T04:54:54.956Z,10.45
2023-05-01T04:57:21.422Z,9.75
2023-05-01T04:59:48.194Z,8.65
2023-05-01T05:02:14.660Z,9.18
2023-05-01T05:04:41.106Z,11.25
2023-05-01T05:07:09.123Z,7.43
2023-05-01T05:09:35.801Z,11.10
2023-05-01T05:12:04.610Z,11.95
2023-05-01T05:14:31.359Z,8.20
2023-05-01T05:16:57.771Z,8.00
2023-05-01T05:19:24.525Z,8.80
2023-05-01T05:21:50.918Z,8.70
2023-05-01T05:24:17.297Z,9.60
2023-05-01T05:26:43.740Z,9.52
2023-05-01T05:29:10.109Z,9.43
2023-05-01T05:31:36.955Z,8.82
2023-05-01T05:34:03.624Z,9.55
2023-05-01T05:36:30.011Z,10.95
2023-05-01T05:38:56.428Z,7.82
2023-05-01T05:41:22.794Z,10.65
2023-05-01T05:43:49.239Z,12.48
2023-05-01T05:46:15.832Z,9.90
2023-05-01T05:48:42.256Z,9.13
2023-05-01T05:51:08.686Z,8.27
2023-05-01T05:53:35.113Z,12.52
2023-05-01T05:56:01.537Z,8.50
2023-05-01T05:58:27.903Z,8.45
2023-05-01T06:00:58.681Z,10.75
2023-05-01T06:03:27.880Z,11.80
2023-05-01T06:05:56.124Z,12.00
2023-05-01T06:08:22.747Z,11.57
2023-05-01T06:10:49.145Z,8.52
2023-05-01T06:13:16.006Z,7.30
2023-05-01T06:15:43.717Z,9.25
2023-05-01T06:18:10.394Z,9.05
2023-05-01T06:20:36.925Z,9.43
2023-05-01T06:23:03.396Z,9.93
2023-05-01T06:25:30.111Z,9.60
2023-05-01T06:27:56.465Z,8.57
2023-05-01T06:30:22.894Z,10.95
2023-05-01T06:32:49.892Z,11.68
2023-05-01T06:35:16.450Z,9.43
2023-05-01T06:37:42.913Z,10.50
2023-05-01T06:40:10.496Z,9.32
2023-05-01T06:42:38.047Z,10.48
2023-05-01T06:45:05.998Z,9.43
2023-05-01T06:47:32.432Z,7.95
2023-05-01T06:49:59.201Z,9.65
2023-05-01T06:52:28.708Z,11.27
2023-05-01T06:54:58.243Z,10.57
2023-05-01T06:57:24.722Z,10.63
2023-05-01T06:59:51.110Z,9.13
2023-05-01T07:02:21.050Z,10.13
2023-05-01T07:04:47.665Z,11.80
2023-05-01T07:07:14.179Z,9.38
2023-05-01T07:09:41.338Z,8.57
2023-05-01T07:12:07.829Z,9.35
2023-05-01T07:14:35.276Z,8.35
2023-05-01T07:17:02.740Z,11.90
2023-05-01T07:19:29.258Z,9.93
2023-05-01T07:21:55.868Z,10.43
2023-05-01T07:24:22.410Z,11.88
2023-05-01T07:26:48.794Z,9.82
2023-05-01T07:29:16.469Z,10.85
2023-05-01T07:31:43.597Z,11.57
2023-05-01T07:34:10.210Z,14.20
2023-05-01T07:36:36.704Z,13.45
2023-05-01T07:39:04.000Z,13.43
2023-05-01T07:41:31.450Z,10.43
2023-05-01T07:44:00.973Z,9.15
2023-05-01T07:46:27.559Z,11.98
2023-05-01T07:48:55.959Z,10.02
2023-05-01T07:51:23.236Z,10.85
2023-05-01T07:53:50.060Z,10.70
2023-05-01T07:56:16.456Z,11.27
2023-05-01T07:58:45.408Z,11.32
2023-05-01T08:01:14.922Z,9.98
2023-05-01T08:03:42.094Z,10.65
2023-05-01T08:06:08.591Z,10.32
2023-05-01T08:08:35.114Z,10.00
2023-05-01T08:11:01.488Z,10.55
2023-05-01T08:13:27.916Z,13.25
2023-05-01T08:15:55.536Z,9.70
2023-05-01T08:18:21.986Z,10.82
2023-05-01T08:20:48.762Z,10.43
2023-05-01T08:23:16.610Z,11.38
2023-05-01T08:25:43.506Z,11.13
2023-05-01T08:28:10.112Z,10.95
2023-05-01T08:30:36.913Z,9.55
2023-05-01T08:33:03.645Z,10.55
2023-05-01T08:35:30.250Z,13.40
2023-05-01T08:37:56.866Z,12.20
2023-05-01T08:40:24.081Z,10.10
2023-05-01T08:42:51.283Z,12.73
2023-05-01T08:45:18.930Z,9.68
2023-05-01T08:47:46.162Z,9.45
2023-05-01T08:50:13.968Z,11.32
2023-05-01T08:52:42.640Z,11.68
2023-05-01T08:55:14.474Z,11.45
2023-05-01T08:57:48.431Z,10.57
2023-05-01T09:00:19.455Z,10.50
2023-05-01T09:02:49.587Z,13.30
2023-05-01T09:05:17.534Z,12.68
2023-05-01T09:07:48.392Z,9.27
2023-05-01T09:10:18.346Z,10.40
2023-05-01T09:12:49.167Z,12.00
2023-05-01T09:15:15.959Z,11.48
2023-05-01T09:17:44.918Z,9.60
2023-05-01T09:20:11.761Z,10.20
2023-05-01T09:22:38.624Z,11.30
2023-05-01T09:25:05.424Z,12.38
2023-05-01T09:27:36.947Z,10.70
2023-05-01T09:30:05.971Z,10.40
2023-05-01T09:32:33.068Z,10.77
2023-05-01T09:35:13.969Z,10.95
2023-05-01T09:37:41.315Z,13.85
2023-05-01T09:40:14.959Z,9.98
2023-05-01T09:42:50.495Z,11.07
2023-05-01T09:45:18.904Z,10.82
2023-05-01T09:47:48.260Z,10.57
2023-05-01T09:50:35.441Z,9.20
2023-05-01T09:53:04.692Z,12.77
2023-05-01T09:55:31.526Z,11.68
2023-05-01T09:57:58.819Z,9.23
2023-05-01T10:00:25.961Z,9.65
2023-05-01T10:02:53.205Z,9.45
2023-05-01T10:05:20.129Z,9.75
2023-05-01T10:08:01.480Z,8.13
2023-05-01T10:10:28.276Z,7.32
2023-05-01T10:12:55.297Z,12.77
2023-05-01T10:15:26.348Z,9.57
2023-05-01T10:17:54.161Z,10.13
2023-05-01T10:20:21.160Z,11.90
2023-05-01T10:22:48.780Z,9.98
2023-05-01T10:25:17.556Z,11.63
2023-05-01T10:27:44.182Z,9.38
2023-05-01T10:30:14.706Z,14.05
2023-05-01T10:35:19.927Z,9.00
2023-05-01T10:38:09.289Z,8.80
2023-05-01T10:40:46.891Z,9.02
2023-05-01T10:43:21.242Z,9.18
2023-05-01T10:45:51.175Z,7.43
2023-05-01T10:48:39.438Z,7.82
2023-05-01T10:51:13.509Z,10.13
2023-05-01T10:53:44.675Z,10.60
2023-05-01T10:56:29.072Z,9.60
2023-05-01T10:58:59.257Z,8.45
2023-05-01T11:01:30.772Z,9.55
2023-05-01T11:04:10.323Z,11.32
2023-05-01T11:06:40.016Z,8.43
2023-05-01T11:09:58.874Z,9.20
2023-05-01T11:12:47.045Z,8.20
2023-05-01T11:15:26.313Z,8.10
2023-05-01T11:17:52.927Z,7.43
2023-05-01T11:20:29.191Z,9.73
2023-05-01T11:22:57.122Z,8.82
2023-05-01T11:25:27.303Z,9.88
2023-05-01T11:27:57.670Z,8.32
2023-05-01T11:30:24.753Z,8.82
2023-05-01T11:32:52.277Z,7.55
2023-05-01T11:35:26.820Z,9.48
2023-05-01T11:37:56.208Z,8.73
2023-05-01T11:40:31.658Z,8.15
2023-05-01T11:43:02.292Z,15.32
2023-05-01T11:45:29.823Z,7.57
2023-05-01T11:47:56.642Z,8.27
2023-05-01T11:50:31.726Z,8.18
2023-05-01T11:52:58.185Z,7.60
2023-05-01T11:55:36.630Z,7.65
2023-05-01T11:58:04.859Z,8.43
2023-05-01T12:00:37.872Z,8.85
2023-05-01T12:03:06.968Z,8.80
2023-05-01T12:05:38.255Z,6.72
2023-05-01T12:08:11.415Z,7.13
2023-05-01T12:10:40.274Z,10.82
2023-05-01T12:13:08.938Z,7.95
2023-05-01T12:15:37.926Z,9.23
2023-05-01T12:18:07.905Z,8.68
2023-05-01T12:20:42.395Z,8.85
2023-05-01T12:23:14.207Z,8.77
2023-05-01T12:25:41.045Z,9.55
2023-05-01T12:28:19.498Z,11.18
2023-05-01T12:30:47.422Z,11.75
2023-05-01T12:33:18.959Z,11.32
2023-05-01T12:35:47.666Z,12.98
2023-05-01T12:38:18.239Z,13.88
2023-05-01T12:40:56.646Z,10.82
2023-05-01T12:43:31.438Z,11.40
2023-05-01T12:46:17.914Z,11.55
2023-05-01T12:48:45.904Z,10.18
2023-05-01T12:51:19.564Z,9.80
2023-05-01T12:53:47.087Z,11.98
2023-05-01T12:56:24.870Z,10.30
2023-05-01T12:58:55.276Z,11.32
2023-05-01T13:01:28.675Z,11.10
2023-05-01T13:03:58.424Z,10.23
2023-05-01T13:06:33.762Z,10.95
2023-05-01T13:09:12.904Z,13.57
2023-05-01T13:11:39.387Z,9.20
2023-05-01T13:14:08.951Z,11.82
2023-05-01T13:16:45.012Z,10.32
2023-05-01T13:19:12.075Z,15.27
2023-05-01T13:21:46.651Z,19.77
2023-05-01T13:24:13.935Z,10.73
2023-05-01T13:26:40.411Z,9.50
2023-05-01T13:29:13.128Z,11.00
2023-05-01T13:31:43.981Z,9.82
2023-05-01T13:34:10.534Z,11.43
2023-05-01T13:36:37.482Z,8.70
2023-05-01T13:39:04.046Z,11.73
2023-05-01T13:41:30.565Z,9.95
2023-05-01T13:43:57.386Z,10.45
2023-05-01T13:46:26.624Z,9.95
2023-05-01T13:48:53.343Z,11.15
2023-05-01T13:51:26.396Z,8.55
2023-05-01T13:53:53.682Z,9.35
2023-05-01T13:56:21.743Z,7.80
2023-05-01T13:58:48.851Z,12.95
2023-05-01T14:01:18.739Z,8.20
2023-05-01T14:03:45.330Z,8.63
2023-05-01T14:06:17.192Z,11.00
2023-05-01T14:08:44.814Z,10.43
2023-05-01T14:11:12.379Z,8.63
2023-05-01T14:13:43.746Z,8.32
2023-05-01T14:16:31.814Z,9.82
2023-05-01T14:18:58.645Z,11.20
2023-05-01T14:21:28.324Z,10.68
2023-05-01T14:23:58.238Z,7.25
2023-05-01T14:26:25.013Z,7.32
2023-05-01T14:28:51.903Z,7.90
2023-05-01T14:31:21.455Z,8.70
2023-05-01T14:33:48.211Z,7.72
2023-05-01T14:36:14.941Z,7.70
2023-05-01T14:38:41.969Z,7.30
2023-05-01T14:41:12.048Z,9.30
2023-05-01T14:43:41.295Z,8.57
2023-05-01T14:46:08.955Z,6.50
2023-05-01T14:48:37.146Z,7.70
2023-05-01T14:51:10.552Z,9.38
2023-05-01T14:53:39.400Z,6.03
2023-05-01T14:56:06.372Z,6.65
2023-05-01T14:58:32.834Z,6.35
2023-05-01T15:00:59.265Z,7.47
2023-05-01T15:03:25.946Z,6.28
2023-05-01T15:05:52.386Z,7.65
2023-05-01T15:08:18.868Z,8.30
2023-05-01T15:10:45.339Z,7.90
2023-05-01T15:13:11.829Z,8.30
2023-05-01T15:15:38.343Z,7.70
2023-05-01T15:18:04.825Z,8.02
2023-05-01T15:20:31.715Z,9.85
2023-05-01T15:22:58.107Z,10.55
2023-05-01T15:25:24.528Z,10.13
2023-05-01T15:27:51.384Z,8.13
2023-05-01T15:30:17.832Z,12.23
2023-05-01T15:32:44.454Z,9.68
2023-05-01T15:35:11.114Z,10.73
2023-05-01T15:37:37.542Z,8.45
2023-05-01T15:40:04.752Z,8.20
2023-05-01T15:42:31.187Z,10.07
2023-05-01T15:44:58.001Z,8.85
2023-05-01T15:47:27.438Z,9.10
2023-05-01T15:49:55.311Z,11.68
2023-05-01T15:52:21.710Z,9.40
2023-05-01T15:54:48.225Z,9.85
2023-05-01T15:57:17.741Z,10.18
2023-05-01T15:59:44.941Z,9.80
2023-05-01T16:02:11.857Z,10.35
2023-05-01T16:04:38.990Z,11.35
2023-05-01T16:07:06.174Z,13.27
2023-05-01T16:09:32.894Z,9.93
2023-05-01T16:12:01.529Z,11.02
2023-05-01T16:14:28.056Z,10.38
2023-05-01T16:16:54.649Z,10.38
2023-05-01T16:19:21.212Z,12.27
2023-05-01T16:21:47.666Z,11.38
2023-05-01T16:24:14.592Z,10.60
2023-05-01T16:26:41.707Z,14.35
2023-05-01T16:29:08.426Z,11.00
2023-05-01T16:31:39.031Z,11.30
2023-05-01T16:36:39.166Z,12.60
2023-05-01T16:39:05.572Z,13.45
2023-05-01T16:41:41.845Z,11.48
2023-05-01T16:44:08.202Z,15.23
2023-05-01T16:46:35.093Z,15.73
2023-05-01T16:49:01.502Z,14.40
2023-05-01T16:51:28.155Z,14.90
2023-05-01T16:53:56.295Z,15.25
2023-05-01T16:56:23.192Z,16.00
2023-05-01T16:58:49.682Z,15.88
2023-05-01T17:01:17.096Z,15.35
2023-05-01T17:03:43.575Z,15.57
2023-05-01T17:06:10.334Z,15.55
2023-05-01T17:08:36.734Z,14.98
2023-05-01T17:11:05.827Z,14.65
2023-05-01T17:13:32.270Z,14.95
2023-05-01T17:15:59.644Z,14.77
2023-05-01T17:18:28.681Z,14.65
2023-05-01T17:20:58.198Z,14.35
2023-05-01T17:23:43.629Z,12.77
2023-05-01T17:26:10.319Z,14.15
2023-05-01T17:28:38.928Z,15.63
2023-05-01T17:31:05.330Z,14.38
2023-05-01T17:33:31.853Z,14.57
2023-05-01T17:36:00.736Z,14.10
2023-05-01T17:38:27.646Z,14.07
2023-05-01T17:40:56.246Z,13.63
2023-05-01T17:43:22.639Z,13.77
2023-05-01T17:45:50.109Z,16.02
2023-05-01T17:48:16.909Z,15.15
2023-05-01T17:50:43.713Z,13.23
2023-05-01T17:54:06.265Z,14.80
2023-05-01T17:56:32.655Z,14.43
2023-05-01T17:58:59.434Z,15.80
2023-05-01T18:01:28.773Z,15.43
2023-05-01T18:03:58.049Z,15.80
2023-05-01T18:06:25.115Z,18.42
2023-05-01T18:08:51.898Z,19.02
2023-05-01T18:11:18.337Z,18.25
2023-05-01T18:13:47.932Z,18.25
2023-05-01T18:16:15.652Z,17.48
2023-05-01T18:18:42.314Z,20.15
2023-05-01T18:21:08.786Z,18.35
2023-05-01T18:23:36.533Z,20.00
2023-05-01T18:26:03.747Z,20.13
2023-05-01T18:28:30.667Z,18.67
2023-05-01T18:30:57.509Z,18.70
2023-05-01T18:33:24.065Z,20.70
2023-05-01T18:35:50.691Z,19.42
2023-05-01T18:38:17.116Z,18.98
2023-05-01T18:40:43.473Z,19.70
2023-05-01T18:43:10.911Z,21.63
2023-05-01T18:45:37.749Z,20.35
2023-05-01T18:48:04.499Z,21.60
2023-05-01T18:50:31.280Z,23.02
2023-05-01T18:52:57.888Z,25.33
2023-05-01T18:55:25.445Z,23.45
2023-05-01T18:57:52.058Z,22.55
2023-05-01T19:00:20.252Z,22.92
2023-05-01T19:02:51.383Z,27.13
2023-05-01T19:05:18.599Z,24.10
2023-05-01T19:08:08.928Z,20.63
2023-05-01T19:10:37.350Z,24.45
2023-05-01T19:13:07.391Z,21.67
2023-05-01T19:15:34.406Z,26.02
2023-05-01T19:18:00.820Z,24.75
2023-05-01T19:20:28.216Z,25.10
2023-05-01T19:22:56.876Z,22.38
2023-05-01T19:25:32.758Z,22.67
2023-05-01T19:28:01.620Z,24.80
2023-05-01T19:30:28.371Z,25.90
2023-05-01T19:32:55.948Z,22.50
2023-05-01T19:35:22.839Z,23.50
2023-05-01T19:37:59.055Z,25.27
2023-05-01T19:40:28.763Z,23.55
2023-05-01T19:43:00.054Z,22.92
2023-05-01T19:45:28.213Z,23.83
2023-05-01T19:48:08.628Z,23.92
2023-05-01T19:50:35.241Z,23.98
2023-05-01T19:53:05.080Z,24.60
2023-05-01T19:55:31.970Z,24.30
2023-05-01T19:57:58.297Z,26.60
2023-05-01T20:00:26.879Z,27.08
2023-05-01T20:02:53.688Z,24.55
2023-05-01T20:05:20.794Z,27.77
2023-05-01T20:07:47.154Z,23.67
2023-05-01T20:10:13.552Z,26.40
2023-05-01T20:12:40.039Z,29.02
2023-05-01T20:15:07.431Z,28.95
2023-05-01T20:17:34.348Z,30.55
2023-05-01T20:20:01.140Z,30.30
2023-05-01T20:22:27.723Z,32.15
2023-05-01T20:24:56.969Z,31.23
2023-05-01T20:27:23.354Z,29.70
2023-05-01T20:29:49.739Z,29.27
2023-05-01T20:32:17.660Z,32.22
2023-05-01T20:34:44.264Z,33.30
2023-05-01T20:37:10.622Z,29.58
2023-05-01T20:39:36.975Z,31.90
2023-05-01T20:42:05.155Z,32.25
2023-05-01T20:44:32.073Z,34.63
2023-05-01T20:46:58.481Z,33.58
2023-05-01T20:49:27.212Z,32.60
2023-05-01T20:51:53.795Z,34.97
2023-05-01T20:54:20.230Z,30.02
2023-05-01T20:56:47.029Z,33.20
2023-05-01T20:59:13.677Z,32.22
2023-05-01T21:01:40.141Z,33.42
2023-05-01T21:04:06.696Z,33.90
2023-05-01T21:06:33.549Z,35.63
2023-05-01T21:09:00.642Z,40.63
2023-05-01T21:11:27.083Z,35.72
2023-05-01T21:13:53.500Z,42.13
2023-05-01T21:16:20.317Z,39.60
2023-05-01T21:18:46.858Z,39.40
2023-05-01T21:21:14.006Z,38.88
2023-05-01T21:23:46.382Z,32.83
2023-05-01T21:26:14.699Z,35.65
2023-05-01T21:28:41.150Z,39.72
2023-05-01T21:31:13.398Z,34.25
2023-05-01T21:33:40.782Z,35.72
2023-05-01T21:36:10.299Z,31.05
2023-05-01T21:38:36.838Z,34.13
2023-05-01T21:41:03.329Z,33.65
2023-05-01T21:43:32.487Z,32.33
2023-05-01T21:45:59.233Z,32.72
2023-05-01T21:48:25.768Z,34.22
2023-05-01T21:50:52.324Z,30.65
2023-05-01T21:53:18.685Z,30.02
2023-05-01T21:55:46.559Z,29.63
2023-05-01T21:58:13.765Z,34.47
2023-05-01T22:00:41.754Z,29.20
2023-05-01T22:03:08.783Z,27.13
2023-05-01T22:05:35.523Z,28.65
2023-05-01T22:08:01.962Z,25.30
2023-05-01T22:10:28.656Z,24.33
2023-05-01T22:12:55.331Z,26.08
2023-05-01T22:15:21.975Z,26.00
2023-05-01T22:17:48.364Z,22.70
2023-05-01T22:20:14.915Z,21.42
2023-05-01T22:22:42.304Z,20.40
2023-05-01T22:25:10.308Z,19.42
2023-05-01T22:27:37.242Z,19.92
2023-05-01T22:30:04.777Z,23.80
2023-05-01T22:32:31.403Z,20.92
2023-05-01T22:34:57.986Z,20.42
2023-05-01T22:37:25.728Z,18.67
2023-05-01T22:39:52.907Z,18.65
2023-05-01T22:42:19.936Z,18.80
2023-05-01T22:44:46.653Z,19.83
2023-05-01T22:47:13.099Z,23.45
2023-05-01T22:49:39.626Z,19.52
2023-05-01T22:52:06.047Z,23.10
2023-05-01T22:54:32.700Z,19.55
2023-05-01T22:56:59.075Z,20.52
2023-05-01T22:59:28.005Z,21.80
2023-05-01T23:01:54.813Z,18.90
2023-05-01T23:04:21.561Z,20.02
2023-05-01T23:06:48.113Z,22.00
2023-05-01T23:09:14.600Z,20.10
2023-05-01T23:11:41.572Z,19.70
2023-05-01T23:14:08.068Z,20.05
2023-05-01T23:16:41.550Z,23.23
2023-05-01T23:19:18.232Z,23.52
2023-05-01T23:21:44.692Z,21.27
2023-05-01T23:24:15.328Z,20.80
2023-05-01T23:26:42.308Z,21.13
2023-05-01T23:29:08.979Z,19.83
2023-05-01T23:31:36.105Z,22.38
2023-05-01T23:34:02.929Z,23.13
2023-05-01T23:36:30.663Z,23.95
2023-05-01T23:38:57.137Z,22.75
2023-05-01T23:41:24.555Z,27.00
2023-05-01T23:43:51.104Z,30.58
2023-05-01T23:46:17.774Z,27.55
2023-05-01T23:48:44.264Z,26.80
2023-05-01T23:51:10.786Z,26.38
2023-05-01T23:53:37.247Z,28.00
2023-05-01T23:56:04.184Z,29.85
2023-05-01T23:58:30.702Z,32.15
